Cosco Venice — VRME4 — position and weather

sailwx.info

Track history (hours):
 
Tides and Currents Weather Stations Pressure Air Temp Water Temp Dewpoint Dewpoint Depression Visibility Wind Speed Wind Dir Waves Ship Positions

Cosco Venice

Last reported at 2017-Dec-09 16:40 UTC. Time now 2017-Dec-12 06:23 UTC.
Position N 09°11' W 079°52'.

Length 261 m; draft 10.1 m.

Type: Ship (hazmat cat D). MMSI: 477004700.

Date/timePositionNaut miles runAvg speedWind from/ knotsBaromVisibWave heightAir tempDewpointWater temp
2017-Dec-09 16:40N 09°11' W 079°52'1 7.9
2017-Dec-09 16:30N 09°11' W 079°53'4 8.6
2017-Dec-09 16:00N 09°15' W 079°55'1 2.6
2017-Dec-09 15:30N 09°16' W 079°55'0 0.4
2017-Dec-09 15:00N 09°16' W 079°55'0 0.4
2017-Dec-09 14:30N 09°17' W 079°55'0 0.5
2017-Dec-09 14:00N 09°17' W 079°55'1 1.4
2017-Dec-09 13:30N 09°18' W 079°55'2 4.9
2017-Dec-09 13:00N 09°20' W 079°55'4 6.4
2017-Dec-09 12:25N 09°24' W 079°55'4 9.2
2017-Dec-09 12:00N 09°28' W 079°55'2 4.3
2017-Dec-09 11:30N 09°30' W 079°56'0 0.1
2017-Dec-09 11:00N 09°30' W 079°56'0 0.0
2017-Dec-09 10:30N 09°30' W 079°56'0 0.0
2017-Dec-09 10:00N 09°30' W 079°56'0 0.0
2017-Dec-09 09:30N 09°30' W 079°56'0 0.0
2017-Dec-09 09:00N 09°30' W 079°56'0 0.0
2017-Dec-09 08:30N 09°30' W 079°56'0 0.0
2017-Dec-09 08:00N 09°30' W 079°56'0 0.0
2017-Dec-09 07:30N 09°30' W 079°56'0 0.0
2017-Dec-09 07:00N 09°30' W 079°56'0 0.0
2017-Dec-09 06:30N 09°30' W 079°56'0 0.0
2017-Dec-09 06:00N 09°30' W 079°56'0 0.0
2017-Dec-09 05:30N 09°30' W 079°56'0 0.0
2017-Dec-09 05:00N 09°30' W 079°56'0 0.0
2017-Dec-09 04:30N 09°30' W 079°56'0 0.0
2017-Dec-09 04:00N 09°30' W 079°56'0 0.0
2017-Dec-09 03:30N 09°30' W 079°56'0 0.5
2017-Dec-09 03:00N 09°30' W 079°56'3 5.4
2017-Dec-09 02:30N 09°32' W 079°54'611.0
2017-Dec-09 02:00N 09°37' W 079°53'611.9
2017-Dec-09 01:29N 09°43' W 079°53'611.4
2017-Dec-09 01:00N 09°49' W 079°53'  
2017-Dec-02 17:04N 29°21' W 094°45'115.7
2017-Dec-02 17:01N 29°21' W 094°46'1014.3
2017-Dec-02 16:19N 29°29' W 094°52'412.4
2017-Dec-02 16:00N 29°32' W 094°54'612.4
2017-Dec-02 15:30N 29°38' W 094°58'4 7.8
2017-Dec-02 15:00N 29°41' W 094°60'0 0.2
2017-Dec-02 14:28N 29°41' W 094°60'0 0.0
2017-Dec-02 13:58N 29°41' W 094°60'0 0.0
2017-Dec-02 13:28N 29°41' W 094°60'0 0.0
2017-Dec-02 12:58N 29°41' W 094°60'0 0.0
2017-Dec-02 12:28N 29°41' W 094°60'0 0.0
2017-Dec-02 11:58N 29°41' W 094°60'0 0.0
2017-Dec-02 11:28N 29°41' W 094°60'0 0.0
2017-Dec-02 10:58N 29°41' W 094°60'0 0.0
2017-Dec-02 10:28N 29°41' W 094°60'0 0.0
2017-Dec-02 09:58N 29°41' W 094°60'0 0.0
2017-Dec-02 09:28N 29°41' W 095°00'0 0.0
2017-Dec-02 08:55N 29°41' W 094°60'0 0.0
2017-Dec-02 08:28N 29°41' W 094°60'0 0.0
2017-Dec-02 07:58N 29°41' W 094°60'0 0.0
2017-Dec-02 07:28N 29°41' W 094°60'0 0.0
2017-Dec-02 06:58N 29°41' W 095°00'0 0.0
2017-Dec-02 06:28N 29°41' W 094°60'0 0.0
2017-Dec-02 05:58N 29°41' W 094°60'0 0.0
2017-Dec-02 05:28N 29°41' W 095°00'0 0.0
2017-Dec-02 04:58N 29°41' W 094°60'0 0.0
2017-Dec-02 04:28N 29°41' W 094°60'0 0.0
2017-Dec-02 03:58N 29°41' W 095°00'0 0.0
2017-Dec-02 03:28N 29°41' W 094°60'0 0.0
2017-Dec-02 02:58N 29°41' W 095°00'0 0.0
2017-Dec-02 02:28N 29°41' W 095°00'0 0.0
2017-Dec-02 01:58N 29°41' W 094°60'0 0.0
2017-Dec-02 01:28N 29°41' W 094°60'0 0.0
2017-Dec-02 00:58N 29°41' W 095°00'0 0.0
2017-Dec-02 00:28N 29°41' W 094°60'0 0.0
2017-Dec-01 23:58N 29°41' W 095°00'0 0.0
2017-Dec-01 23:28N 29°41' W 094°60'0 0.0
2017-Dec-01 22:58N 29°41' W 094°60'0 0.0
2017-Dec-01 22:28N 29°41' W 094°60'0 0.0
2017-Dec-01 21:58N 29°41' W 095°00'0 0.0
2017-Dec-01 21:28N 29°41' W 094°60'0 0.0
2017-Dec-01 20:58N 29°41' W 094°60'0 0.0
2017-Dec-01 20:28N 29°41' W 094°60'0 0.0
2017-Dec-01 19:58N 29°41' W 094°60'0 0.0
2017-Dec-01 19:28N 29°41' W 095°00'0 0.0
2017-Dec-01 18:58N 29°41' W 094°60'0 0.0
2017-Dec-01 18:28N 29°41' W 094°60'0 0.0
2017-Dec-01 17:58N 29°41' W 094°60'0 0.0
2017-Dec-01 17:28N 29°41' W 094°60'0 0.0
2017-Dec-01 16:58N 29°41' W 094°60'0 0.0
2017-Dec-01 16:28N 29°41' W 094°60'0 0.0
2017-Dec-01 15:58N 29°41' W 094°60'0 0.0
2017-Dec-01 15:28N 29°41' W 094°60'0 0.0
2017-Dec-01 14:58N 29°41' W 094°60'0 0.0
2017-Dec-01 14:28N 29°41' W 094°60'0 0.0
2017-Dec-01 13:58N 29°41' W 095°00'0 0.0
2017-Dec-01 13:28N 29°41' W 094°60'0 0.0
2017-Dec-01 12:58N 29°41' W 095°00'0 0.0
2017-Dec-01 12:28N 29°41' W 094°60'0 0.0
2017-Dec-01 11:58N 29°41' W 094°60'0 0.0
2017-Dec-01 11:25N 29°41' W 094°60'0 0.0
2017-Dec-01 10:58N 29°41' W 094°60'0 0.0
2017-Dec-01 10:28N 29°41' W 094°60'0 0.0
2017-Dec-01 09:58N 29°41' W 094°60'0 0.0
2017-Dec-01 09:28N 29°41' W 094°60'0 0.0
2017-Dec-01 08:58N 29°41' W 094°60'0 0.0
2017-Dec-01 08:28N 29°41' W 095°00'0 0.0
2017-Dec-01 07:58N 29°41' W 094°60'0 0.0
2017-Dec-01 07:28N 29°41' W 094°60'0 0.0
2017-Dec-01 06:58N 29°41' W 094°60'0 0.0
2017-Dec-01 06:28N 29°41' W 094°60'0 0.0
2017-Dec-01 05:58N 29°41' W 094°60'0 0.0
2017-Dec-01 05:25N 29°41' W 094°60'0 0.0
2017-Dec-01 04:58N 29°41' W 095°00'0 0.0
2017-Dec-01 04:28N 29°41' W 094°60'0 0.0
2017-Dec-01 03:58N 29°41' W 094°60'0 0.0
2017-Dec-01 03:28N 29°41' W 094°60'0 0.0
2017-Dec-01 02:58N 29°41' W 094°60'0 0.0
2017-Dec-01 02:28N 29°41' W 095°00'0 0.0
2017-Dec-01 01:55N 29°41' W 094°60'0 0.0
2017-Dec-01 01:28N 29°41' W 094°60'0 0.5
2017-Dec-01 01:00N 29°41' W 095°00'1 2.3
2017-Dec-01 00:31N 29°41' W 094°59'5 9.5
2017-Dec-01 00:00N 29°37' W 094°57'612.0
2017-Nov-30 23:30N 29°32' W 094°53'612.5
2017-Nov-30 23:00N 29°26' W 094°50'713.2
2017-Nov-30 22:30N 29°21' W 094°46'22 2.9
2017-Nov-30 14:58N 29°13' W 094°23'0 0.0
2017-Nov-30 14:25N 29°13' W 094°23'0 0.0
2017-Nov-30 13:58N 29°13' W 094°23'0 0.0
2017-Nov-30 13:28N 29°13' W 094°23'0 0.0
2017-Nov-30 12:49N 29°13' W 094°23'0 0.0
2017-Nov-30 12:22N 29°13' W 094°23'0 0.0
2017-Nov-30 11:58N 29°13' W 094°23'0 0.0
2017-Nov-30 11:28N 29°13' W 094°23'0 0.0
2017-Nov-30 10:58N 29°13' W 094°23'0 0.0
2017-Nov-30 10:25N 29°13' W 094°23'0 0.0
2017-Nov-30 09:58N 29°13' W 094°23'0 0.0
2017-Nov-30 09:28N 29°13' W 094°23'0 0.0
2017-Nov-30 08:58N 29°13' W 094°23'  
Track history (hours):
 
Tides and Currents Weather Stations Pressure Air Temp Water Temp Dewpoint Dewpoint Depression Visibility Wind Speed Wind Dir Waves Ship Positions

Cosco Venice

Last reported at 2017-Dec-09 16:40 UTC. Time now 2017-Dec-12 06:23 UTC.
Position N 09°11' W 079°52'.

Length 261 m; draft 10.1 m.

Type: Ship (hazmat cat D). MMSI: 477004700.

Date/timePositionNaut miles runAvg speedWind from/ knotsBaromVisibWave heightAir tempDewpointWater temp
2017-Dec-09 16:40N 09°11' W 079°52'1 7.9
2017-Dec-09 16:30N 09°11' W 079°53'4 8.6
2017-Dec-09 16:00N 09°15' W 079°55'1 2.6
2017-Dec-09 15:30N 09°16' W 079°55'0 0.4
2017-Dec-09 15:00N 09°16' W 079°55'0 0.4
2017-Dec-09 14:30N 09°17' W 079°55'0 0.5
2017-Dec-09 14:00N 09°17' W 079°55'1 1.4
2017-Dec-09 13:30N 09°18' W 079°55'2 4.9
2017-Dec-09 13:00N 09°20' W 079°55'4 6.4
2017-Dec-09 12:25N 09°24' W 079°55'4 9.2
2017-Dec-09 12:00N 09°28' W 079°55'2 4.3
2017-Dec-09 11:30N 09°30' W 079°56'0 0.1
2017-Dec-09 11:00N 09°30' W 079°56'0 0.0
2017-Dec-09 10:30N 09°30' W 079°56'0 0.0
2017-Dec-09 10:00N 09°30' W 079°56'0 0.0
2017-Dec-09 09:30N 09°30' W 079°56'0 0.0
2017-Dec-09 09:00N 09°30' W 079°56'0 0.0
2017-Dec-09 08:30N 09°30' W 079°56'0 0.0
2017-Dec-09 08:00N 09°30' W 079°56'0 0.0
2017-Dec-09 07:30N 09°30' W 079°56'0 0.0
2017-Dec-09 07:00N 09°30' W 079°56'0 0.0
2017-Dec-09 06:30N 09°30' W 079°56'0 0.0
2017-Dec-09 06:00N 09°30' W 079°56'0 0.0
2017-Dec-09 05:30N 09°30' W 079°56'0 0.0
2017-Dec-09 05:00N 09°30' W 079°56'0 0.0
2017-Dec-09 04:30N 09°30' W 079°56'0 0.0
2017-Dec-09 04:00N 09°30' W 079°56'0 0.0
2017-Dec-09 03:30N 09°30' W 079°56'0 0.5
2017-Dec-09 03:00N 09°30' W 079°56'3 5.4
2017-Dec-09 02:30N 09°32' W 079°54'611.0
2017-Dec-09 02:00N 09°37' W 079°53'611.9
2017-Dec-09 01:29N 09°43' W 079°53'611.4
2017-Dec-09 01:00N 09°49' W 079°53'  
2017-Dec-02 17:04N 29°21' W 094°45'115.7
2017-Dec-02 17:01N 29°21' W 094°46'1014.3
2017-Dec-02 16:19N 29°29' W 094°52'412.4
2017-Dec-02 16:00N 29°32' W 094°54'612.4
2017-Dec-02 15:30N 29°38' W 094°58'4 7.8
2017-Dec-02 15:00N 29°41' W 094°60'0 0.2
2017-Dec-02 14:28N 29°41' W 094°60'0 0.0
2017-Dec-02 13:58N 29°41' W 094°60'0 0.0
2017-Dec-02 13:28N 29°41' W 094°60'0 0.0
2017-Dec-02 12:58N 29°41' W 094°60'0 0.0
2017-Dec-02 12:28N 29°41' W 094°60'0 0.0
2017-Dec-02 11:58N 29°41' W 094°60'0 0.0
2017-Dec-02 11:28N 29°41' W 094°60'0 0.0
2017-Dec-02 10:58N 29°41' W 094°60'0 0.0
2017-Dec-02 10:28N 29°41' W 094°60'0 0.0
2017-Dec-02 09:58N 29°41' W 094°60'0 0.0
2017-Dec-02 09:28N 29°41' W 095°00'0 0.0
2017-Dec-02 08:55N 29°41' W 094°60'0 0.0
2017-Dec-02 08:28N 29°41' W 094°60'0 0.0
2017-Dec-02 07:58N 29°41' W 094°60'0 0.0
2017-Dec-02 07:28N 29°41' W 094°60'0 0.0
2017-Dec-02 06:58N 29°41' W 095°00'0 0.0
2017-Dec-02 06:28N 29°41' W 094°60'0 0.0
2017-Dec-02 05:58N 29°41' W 094°60'0 0.0
2017-Dec-02 05:28N 29°41' W 095°00'0 0.0
2017-Dec-02 04:58N 29°41' W 094°60'0 0.0
2017-Dec-02 04:28N 29°41' W 094°60'0 0.0
2017-Dec-02 03:58N 29°41' W 095°00'0 0.0
2017-Dec-02 03:28N 29°41' W 094°60'0 0.0
2017-Dec-02 02:58N 29°41' W 095°00'0 0.0
2017-Dec-02 02:28N 29°41' W 095°00'0 0.0
2017-Dec-02 01:58N 29°41' W 094°60'0 0.0
2017-Dec-02 01:28N 29°41' W 094°60'0 0.0
2017-Dec-02 00:58N 29°41' W 095°00'0 0.0
2017-Dec-02 00:28N 29°41' W 094°60'0 0.0
2017-Dec-01 23:58N 29°41' W 095°00'0 0.0
2017-Dec-01 23:28N 29°41' W 094°60'0 0.0
2017-Dec-01 22:58N 29°41' W 094°60'0 0.0
2017-Dec-01 22:28N 29°41' W 094°60'0 0.0
2017-Dec-01 21:58N 29°41' W 095°00'0 0.0
2017-Dec-01 21:28N 29°41' W 094°60'0 0.0
2017-Dec-01 20:58N 29°41' W 094°60'0 0.0
2017-Dec-01 20:28N 29°41' W 094°60'0 0.0
2017-Dec-01 19:58N 29°41' W 094°60'0 0.0
2017-Dec-01 19:28N 29°41' W 095°00'0 0.0
2017-Dec-01 18:58N 29°41' W 094°60'0 0.0
2017-Dec-01 18:28N 29°41' W 094°60'0 0.0
2017-Dec-01 17:58N 29°41' W 094°60'0 0.0
2017-Dec-01 17:28N 29°41' W 094°60'0 0.0
2017-Dec-01 16:58N 29°41' W 094°60'0 0.0
2017-Dec-01 16:28N 29°41' W 094°60'0 0.0
2017-Dec-01 15:58N 29°41' W 094°60'0 0.0
2017-Dec-01 15:28N 29°41' W 094°60'0 0.0
2017-Dec-01 14:58N 29°41' W 094°60'0 0.0
2017-Dec-01 14:28N 29°41' W 094°60'0 0.0
2017-Dec-01 13:58N 29°41' W 095°00'0 0.0
2017-Dec-01 13:28N 29°41' W 094°60'0 0.0
2017-Dec-01 12:58N 29°41' W 095°00'0 0.0
2017-Dec-01 12:28N 29°41' W 094°60'0 0.0
2017-Dec-01 11:58N 29°41' W 094°60'0 0.0
2017-Dec-01 11:25N 29°41' W 094°60'0 0.0
2017-Dec-01 10:58N 29°41' W 094°60'0 0.0
2017-Dec-01 10:28N 29°41' W 094°60'0 0.0
2017-Dec-01 09:58N 29°41' W 094°60'0 0.0
2017-Dec-01 09:28N 29°41' W 094°60'0 0.0
2017-Dec-01 08:58N 29°41' W 094°60'0 0.0
2017-Dec-01 08:28N 29°41' W 095°00'0 0.0
2017-Dec-01 07:58N 29°41' W 094°60'0 0.0
2017-Dec-01 07:28N 29°41' W 094°60'0 0.0
2017-Dec-01 06:58N 29°41' W 094°60'0 0.0
2017-Dec-01 06:28N 29°41' W 094°60'0 0.0
2017-Dec-01 05:58N 29°41' W 094°60'0 0.0
2017-Dec-01 05:25N 29°41' W 094°60'0 0.0
2017-Dec-01 04:58N 29°41' W 095°00'0 0.0
2017-Dec-01 04:28N 29°41' W 094°60'0 0.0
2017-Dec-01 03:58N 29°41' W 094°60'0 0.0
2017-Dec-01 03:28N 29°41' W 094°60'0 0.0
2017-Dec-01 02:58N 29°41' W 094°60'0 0.0
2017-Dec-01 02:28N 29°41' W 095°00'0 0.0
2017-Dec-01 01:55N 29°41' W 094°60'0 0.0
2017-Dec-01 01:28N 29°41' W 094°60'0 0.5
2017-Dec-01 01:00N 29°41' W 095°00'1 2.3
2017-Dec-01 00:31N 29°41' W 094°59'5 9.5
2017-Dec-01 00:00N 29°37' W 094°57'612.0
2017-Nov-30 23:30N 29°32' W 094°53'612.5
2017-Nov-30 23:00N 29°26' W 094°50'713.2
2017-Nov-30 22:30N 29°21' W 094°46'22 2.9
2017-Nov-30 14:58N 29°13' W 094°23'0 0.0
2017-Nov-30 14:25N 29°13' W 094°23'0 0.0
2017-Nov-30 13:58N 29°13' W 094°23'0 0.0
2017-Nov-30 13:28N 29°13' W 094°23'0 0.0
2017-Nov-30 12:49N 29°13' W 094°23'0 0.0
2017-Nov-30 12:22N 29°13' W 094°23'0 0.0
2017-Nov-30 11:58N 29°13' W 094°23'0 0.0
2017-Nov-30 11:28N 29°13' W 094°23'0 0.0
2017-Nov-30 10:58N 29°13' W 094°23'0 0.0
2017-Nov-30 10:25N 29°13' W 094°23'0 0.0
2017-Nov-30 09:58N 29°13' W 094°23'0 0.0
2017-Nov-30 09:28N 29°13' W 094°23'0 0.0
2017-Nov-30 08:58N 29°13' W 094°23'  

Dump ship's entire track history